createdAt,value
2023-04-15T00:01:39.106Z,1.17
2023-04-15T00:04:06.411Z,1.35
2023-04-15T00:06:33.716Z,1.52
2023-04-15T00:09:01.300Z,1.10
2023-04-15T00:11:28.848Z,0.75
2023-04-15T00:13:56.118Z,0.85
2023-04-15T00:16:23.317Z,1.10
2023-04-15T00:18:50.712Z,1.38
2023-04-15T00:21:18.099Z,1.08
2023-04-15T00:23:49.694Z,0.73
2023-04-15T00:26:16.908Z,1.15
2023-04-15T00:28:44.750Z,0.90
2023-04-15T00:31:12.054Z,1.23
2023-04-15T00:33:40.056Z,0.70
2023-04-15T00:36:08.515Z,0.52
2023-04-15T00:38:38.039Z,0.75
2023-04-15T00:41:05.702Z,1.10
2023-04-15T00:43:36.572Z,1.15
2023-04-15T00:46:05.948Z,1.08
2023-04-15T00:48:33.284Z,1.30
2023-04-15T00:51:00.854Z,0.93
2023-04-15T00:53:28.046Z,0.80
2023-04-15T00:55:55.963Z,1.00
2023-04-15T00:58:23.616Z,1.25
2023-04-15T01:00:54.262Z,1.35
2023-04-15T01:03:21.795Z,1.48
2023-04-15T01:05:49.989Z,1.45
2023-04-15T01:08:17.620Z,1.55
2023-04-15T01:10:45.390Z,1.80
2023-04-15T01:13:13.249Z,1.83
2023-04-15T01:15:40.732Z,1.33
2023-04-15T01:18:08.406Z,2.40
2023-04-15T01:20:38.761Z,1.88
2023-04-15T01:25:54.455Z,2.45
2023-04-15T01:28:21.825Z,2.83
2023-04-15T01:30:49.148Z,2.60
2023-04-15T01:33:16.329Z,2.90
2023-04-15T01:35:44.755Z,2.30
2023-04-15T01:38:12.361Z,2.17
2023-04-15T01:40:40.824Z,2.15
2023-04-15T01:43:08.293Z,0.88
2023-04-15T01:45:35.607Z,2.40
2023-04-15T01:48:04.815Z,1.95
2023-04-15T01:50:32.150Z,1.88
2023-04-15T01:52:59.692Z,1.98
2023-04-15T01:55:27.035Z,2.08
2023-04-15T01:57:54.256Z,1.55
2023-04-15T02:00:24.293Z,1.88
2023-04-15T02:02:52.732Z,2.15
2023-04-15T02:05:20.002Z,1.73
2023-04-15T02:07:50.261Z,1.67
2023-04-15T02:10:17.578Z,2.03
2023-04-15T02:12:45.025Z,1.17
2023-04-15T02:15:12.232Z,1.73
2023-04-15T02:17:39.467Z,1.13
2023-04-15T02:20:09.299Z,1.45
2023-04-15T02:22:36.518Z,1.98
2023-04-15T02:25:04.171Z,2.00
2023-04-15T02:27:32.878Z,1.50
2023-04-15T02:30:00.070Z,1.80
2023-04-15T02:32:27.401Z,1.63
2023-04-15T02:34:55.910Z,1.35
2023-04-15T02:37:23.317Z,2.05
2023-04-15T02:39:50.586Z,1.48
2023-04-15T02:42:18.679Z,1.30
2023-04-15T02:44:45.919Z,1.42
2023-04-15T02:47:14.289Z,1.92
2023-04-15T02:49:42.992Z,1.08
2023-04-15T02:52:10.274Z,1.45
2023-04-15T02:54:37.933Z,2.05
2023-04-15T02:57:06.812Z,1.63
2023-04-15T02:59:34.145Z,1.50
2023-04-15T03:02:01.533Z,0.85
2023-04-15T03:04:30.768Z,1.15
2023-04-15T03:06:58.110Z,1.63
2023-04-15T03:09:26.609Z,1.20
2023-04-15T03:11:54.842Z,1.10
2023-04-15T03:14:22.433Z,0.73
2023-04-15T03:16:50.609Z,1.00
2023-04-15T03:19:18.428Z,0.85
2023-04-15T03:21:45.689Z,1.95
2023-04-15T03:24:14.088Z,1.17
2023-04-15T03:26:41.344Z,1.55
2023-04-15T03:29:15.333Z,1.38
2023-04-15T03:31:43.119Z,1.38
2023-04-15T03:34:10.627Z,1.05
2023-04-15T03:36:37.899Z,1.58
2023-04-15T03:39:05.515Z,1.08
2023-04-15T03:41:33.064Z,1.33
2023-04-15T03:44:00.515Z,1.23
2023-04-15T03:46:27.988Z,0.95
2023-04-15T03:48:55.318Z,0.95
2023-04-15T03:51:22.580Z,1.15
2023-04-15T03:53:49.780Z,0.85
2023-04-15T03:56:17.205Z,1.40
2023-04-15T03:58:44.492Z,0.75
2023-04-15T04:01:11.721Z,1.05
2023-04-15T04:03:39.000Z,0.68
2023-04-15T04:06:06.712Z,0.77
2023-04-15T04:08:34.047Z,1.27
2023-04-15T04:11:01.409Z,1.00
2023-04-15T04:13:28.636Z,0.80
2023-04-15T04:15:55.887Z,0.73
2023-04-15T04:18:23.399Z,1.15
2023-04-15T04:20:50.858Z,1.02
2023-04-15T04:23:18.116Z,1.20
2023-04-15T04:25:45.322Z,0.65
2023-04-15T04:28:12.595Z,1.08
2023-04-15T04:30:40.457Z,0.90
2023-04-15T04:33:07.966Z,0.60
2023-04-15T04:35:37.669Z,1.77
2023-04-15T04:38:04.994Z,0.88
2023-04-15T04:40:32.256Z,1.13
2023-04-15T04:42:59.839Z,0.85
2023-04-15T04:45:27.200Z,0.52
2023-04-15T04:47:54.638Z,0.93
2023-04-15T04:50:22.022Z,1.02
2023-04-15T04:52:49.350Z,0.80
2023-04-15T04:55:16.775Z,1.27
2023-04-15T04:57:48.194Z,1.38
2023-04-15T05:04:28.258Z,1.30
2023-04-15T05:06:55.623Z,1.67
2023-04-15T05:09:22.974Z,1.13
2023-04-15T05:11:50.424Z,1.63
2023-04-15T05:14:17.857Z,0.93
2023-04-15T05:16:57.687Z,1.70
2023-04-15T05:19:28.780Z,1.10
2023-04-15T05:21:58.118Z,1.83
2023-04-15T05:24:29.316Z,1.17
2023-04-15T05:26:57.084Z,0.88
2023-04-15T05:29:24.374Z,1.08
2023-04-15T05:31:51.925Z,0.75
2023-04-15T05:34:19.186Z,1.60
2023-04-15T05:36:47.923Z,0.80
2023-04-15T05:39:15.455Z,1.13
2023-04-15T05:41:42.709Z,1.17
2023-04-15T05:44:10.236Z,1.42
2023-04-15T05:46:37.807Z,0.70
2023-04-15T05:49:05.177Z,0.90
2023-04-15T05:51:32.499Z,0.90
2023-04-15T05:53:59.843Z,1.35
2023-04-15T05:56:27.179Z,1.05
2023-04-15T05:58:54.388Z,1.17
2023-04-15T06:01:22.262Z,1.27
2023-04-15T06:03:50.130Z,1.02
2023-04-15T06:06:17.540Z,1.15
2023-04-15T06:08:44.913Z,1.23
2023-04-15T06:11:12.163Z,0.95
2023-04-15T06:13:39.530Z,1.23
2023-04-15T06:16:08.021Z,1.67
2023-04-15T06:18:35.403Z,1.42
2023-04-15T06:21:02.689Z,0.90
2023-04-15T06:23:30.114Z,1.42
2023-04-15T06:25:57.376Z,1.35
2023-04-15T06:28:24.561Z,1.20
2023-04-15T06:30:52.754Z,1.20
2023-04-15T06:33:20.072Z,1.25
2023-04-15T06:35:48.048Z,0.55
2023-04-15T06:38:15.339Z,1.27
2023-04-15T06:40:42.855Z,1.20
2023-04-15T06:43:10.271Z,1.30
2023-04-15T06:45:37.689Z,1.63
2023-04-15T06:48:05.834Z,1.25
2023-04-15T06:50:33.656Z,1.27
2023-04-15T06:53:00.935Z,1.05
2023-04-15T06:55:28.153Z,1.80
2023-04-15T06:57:55.388Z,1.42
2023-04-15T07:00:22.838Z,1.08
2023-04-15T07:02:50.675Z,1.92
2023-04-15T07:05:18.977Z,1.60
2023-04-15T07:07:46.187Z,1.90
2023-04-15T07:10:14.887Z,1.27
2023-04-15T07:12:42.213Z,1.42
2023-04-15T07:15:09.973Z,1.80
2023-04-15T07:17:37.344Z,2.95
2023-04-15T07:20:05.162Z,2.35
2023-04-15T07:22:32.925Z,1.92
2023-04-15T07:25:00.561Z,2.38
2023-04-15T07:27:27.933Z,2.40
2023-04-15T07:29:55.149Z,2.30
2023-04-15T07:32:22.410Z,1.77
2023-04-15T07:34:49.631Z,3.00
2023-04-15T07:37:17.518Z,3.83
2023-04-15T07:39:45.014Z,3.15
2023-04-15T07:42:12.578Z,4.10
2023-04-15T07:44:40.522Z,3.80
2023-04-15T07:49:37.055Z,2.50
2023-04-15T07:52:04.793Z,3.13
2023-04-15T07:54:32.403Z,3.38
2023-04-15T07:57:00.016Z,4.32
2023-04-15T07:59:30.124Z,3.95
2023-04-15T08:01:57.739Z,4.50
2023-04-15T08:04:26.033Z,5.10
2023-04-15T08:06:54.054Z,4.45
2023-04-15T08:09:21.777Z,5.18
2023-04-15T08:11:50.946Z,5.13
2023-04-15T08:14:18.481Z,4.70
2023-04-15T08:16:46.176Z,5.40
2023-04-15T08:19:14.109Z,5.88
2023-04-15T08:21:42.028Z,4.93
2023-04-15T08:24:09.914Z,5.03
2023-04-15T08:26:37.251Z,5.65
2023-04-15T08:29:05.067Z,6.45
2023-04-15T08:31:33.170Z,5.93
2023-04-15T08:34:00.932Z,5.00
2023-04-15T08:36:29.385Z,6.72
2023-04-15T08:38:56.640Z,7.00
2023-04-15T08:41:29.416Z,6.75
2023-04-15T08:44:04.134Z,8.00
2023-04-15T08:46:37.466Z,5.50
2023-04-15T08:49:05.865Z,8.13
2023-04-15T08:51:34.081Z,8.68
2023-04-15T08:54:03.961Z,8.75
2023-04-15T08:56:35.137Z,8.80
2023-04-15T08:59:02.898Z,9.23
2023-04-15T09:01:31.832Z,7.15
2023-04-15T09:04:00.005Z,8.18
2023-04-15T09:06:27.833Z,8.57
2023-04-15T09:08:55.500Z,9.55
2023-04-15T09:11:23.166Z,9.93
2023-04-15T09:13:51.682Z,9.60
2023-04-15T09:16:19.682Z,9.15
2023-04-15T09:18:47.170Z,6.97
2023-04-15T09:21:17.709Z,7.85
2023-04-15T09:24:00.858Z,8.63
2023-04-15T09:26:36.686Z,9.93
2023-04-15T09:31:39.034Z,9.65
2023-04-15T09:34:07.390Z,8.68
2023-04-15T09:37:01.641Z,9.30
2023-04-15T09:39:50.255Z,7.85
2023-04-15T09:42:24.304Z,10.77
2023-04-15T09:44:53.303Z,9.00
2023-04-15T09:47:31.666Z,10.38
2023-04-15T09:50:00.486Z,8.18
2023-04-15T09:52:28.922Z,7.95
2023-04-15T09:55:01.152Z,8.40
2023-04-15T09:57:36.639Z,10.32
2023-04-15T10:00:06.610Z,9.32
2023-04-15T10:02:35.458Z,9.27
2023-04-15T10:05:04.119Z,8.90
2023-04-15T10:07:32.526Z,10.10
2023-04-15T10:10:00.613Z,10.05
2023-04-15T10:12:29.459Z,10.05
2023-04-15T10:15:05.341Z,9.25
2023-04-15T10:17:35.602Z,8.65
2023-04-15T10:20:05.384Z,9.40
2023-04-15T10:22:33.391Z,9.48
2023-04-15T10:25:03.016Z,8.35
2023-04-15T10:27:31.231Z,9.77
2023-04-15T10:30:01.160Z,9.05
2023-04-15T10:32:28.749Z,8.88
2023-04-15T10:34:57.073Z,10.23
2023-04-15T10:37:38.276Z,11.15
2023-04-15T10:40:29.541Z,12.65
2023-04-15T10:43:01.700Z,9.13
2023-04-15T10:45:36.938Z,8.88
2023-04-15T10:48:07.763Z,9.50
2023-04-15T10:50:37.288Z,8.55
2023-04-15T10:53:05.263Z,10.60
2023-04-15T10:55:34.361Z,9.75
2023-04-15T10:58:03.140Z,10.60
2023-04-15T11:00:33.050Z,9.57
2023-04-15T11:03:08.392Z,9.90
2023-04-15T11:05:42.650Z,11.43
2023-04-15T11:08:11.073Z,9.90
2023-04-15T11:10:38.514Z,10.00
2023-04-15T11:13:17.265Z,8.85
2023-04-15T11:15:46.514Z,8.93
2023-04-15T11:18:17.056Z,10.50
2023-04-15T11:20:47.352Z,8.25
2023-04-15T11:23:16.181Z,9.30
2023-04-15T11:25:44.426Z,8.85
2023-04-15T11:28:13.380Z,10.23
2023-04-15T11:30:42.266Z,8.52
2023-04-15T11:33:14.346Z,9.70
2023-04-15T11:35:42.777Z,7.07
2023-04-15T11:38:12.327Z,8.68
2023-04-15T11:40:40.298Z,8.00
2023-04-15T11:43:16.593Z,9.50
2023-04-15T11:45:57.228Z,8.73
2023-04-15T11:48:29.626Z,8.23
2023-04-15T11:50:59.679Z,8.55
2023-04-15T11:53:44.167Z,7.70
2023-04-15T11:56:23.779Z,5.90
2023-04-15T11:59:02.244Z,9.65
2023-04-15T12:01:39.378Z,7.60
2023-04-15T12:04:13.644Z,10.05
2023-04-15T12:06:41.365Z,7.00
2023-04-15T12:09:15.231Z,8.90
2023-04-15T12:11:49.523Z,10.23
2023-04-15T12:14:30.376Z,7.95
2023-04-15T12:17:06.269Z,8.90
2023-04-15T12:19:38.839Z,9.35
2023-04-15T12:22:14.025Z,9.75
2023-04-15T12:27:11.911Z,8.30
2023-04-15T12:29:41.810Z,9.30
2023-04-15T12:32:16.628Z,7.82
2023-04-15T12:34:50.320Z,7.18
2023-04-15T12:37:17.826Z,8.88
2023-04-15T12:39:48.790Z,8.60
2023-04-15T12:42:17.701Z,9.75
2023-04-15T12:44:45.307Z,9.20
2023-04-15T12:47:13.165Z,5.80
2023-04-15T12:49:41.249Z,8.82
2023-04-15T12:52:08.792Z,9.52
2023-04-15T12:54:36.364Z,8.63
2023-04-15T12:57:06.964Z,9.77
2023-04-15T12:59:35.529Z,8.40
2023-04-15T13:02:03.926Z,9.75
2023-04-15T13:04:32.066Z,8.38
2023-04-15T13:07:02.109Z,7.25
2023-04-15T13:09:29.401Z,8.88
2023-04-15T13:11:57.669Z,7.82
2023-04-15T13:14:25.745Z,8.70
2023-04-15T13:16:53.816Z,7.13
2023-04-15T13:19:21.255Z,8.35
2023-04-15T13:21:48.552Z,8.27
2023-04-15T13:24:15.758Z,7.72
2023-04-15T13:26:43.034Z,8.32
2023-04-15T13:29:11.534Z,7.97
2023-04-15T13:31:38.782Z,8.90
2023-04-15T13:34:06.294Z,8.73
2023-04-15T13:36:33.841Z,8.32
2023-04-15T13:39:01.415Z,8.20
2023-04-15T13:41:28.655Z,8.02
2023-04-15T13:43:55.939Z,8.38
2023-04-15T13:46:23.236Z,8.02
2023-04-15T13:48:50.752Z,8.30
2023-04-15T13:51:18.139Z,8.15
2023-04-15T13:53:45.413Z,7.43
2023-04-15T13:56:12.644Z,7.93
2023-04-15T13:58:41.316Z,8.80
2023-04-15T14:01:08.910Z,7.68
2023-04-15T14:03:36.833Z,7.03
2023-04-15T14:06:07.912Z,7.47
2023-04-15T14:08:35.248Z,7.65
2023-04-15T14:11:02.501Z,7.18
2023-04-15T14:13:29.947Z,7.15
2023-04-15T14:15:57.384Z,8.35
2023-04-15T14:18:24.772Z,10.18
2023-04-15T14:20:52.041Z,13.13
2023-04-15T14:23:19.533Z,8.57
2023-04-15T14:25:48.360Z,7.50
2023-04-15T14:28:16.037Z,8.23
2023-04-15T14:30:43.714Z,8.88
2023-04-15T14:33:11.158Z,7.43
2023-04-15T14:35:39.118Z,7.90
2023-04-15T14:38:10.357Z,7.85
2023-04-15T14:40:37.624Z,9.27
2023-04-15T14:43:04.979Z,7.40
2023-04-15T14:45:32.205Z,8.38
2023-04-15T14:47:59.916Z,7.97
2023-04-15T14:50:27.280Z,7.40
2023-04-15T14:52:54.488Z,8.13
2023-04-15T14:55:22.106Z,8.77
2023-04-15T14:57:49.300Z,8.40
2023-04-15T15:00:16.634Z,8.48
2023-04-15T15:02:44.063Z,9.18
2023-04-15T15:05:12.214Z,9.10
2023-04-15T15:07:40.851Z,7.70
2023-04-15T15:10:08.718Z,8.38
2023-04-15T15:12:36.241Z,7.43
2023-04-15T15:15:12.199Z,8.10
2023-04-15T15:17:39.899Z,8.10
2023-04-15T15:20:07.791Z,8.10
2023-04-15T15:22:35.024Z,7.45
2023-04-15T15:25:02.439Z,8.73
2023-04-15T15:27:29.712Z,9.60
2023-04-15T15:29:56.978Z,9.15
2023-04-15T15:32:24.307Z,9.20
2023-04-15T15:34:51.982Z,8.80
2023-04-15T15:37:19.273Z,8.93
2023-04-15T15:39:46.512Z,7.68
2023-04-15T15:42:13.770Z,7.88
2023-04-15T15:44:41.184Z,8.07
2023-04-15T15:47:08.585Z,9.27
2023-04-15T15:49:35.892Z,9.05
2023-04-15T15:52:03.129Z,8.07
2023-04-15T15:54:30.450Z,8.93
2023-04-15T15:56:57.990Z,8.57
2023-04-15T15:59:26.001Z,9.48
2023-04-15T16:01:53.415Z,8.00
2023-04-15T16:04:21.008Z,7.97
2023-04-15T16:06:48.559Z,8.07
2023-04-15T16:09:16.532Z,8.20
2023-04-15T16:11:45.275Z,7.50
2023-04-15T16:14:13.933Z,9.20
2023-04-15T16:16:41.281Z,9.00
2023-04-15T16:19:08.526Z,8.07
2023-04-15T16:21:35.988Z,8.32
2023-04-15T16:24:03.273Z,8.43
2023-04-15T16:26:30.498Z,8.27
2023-04-15T16:28:57.734Z,8.32
2023-04-15T16:31:25.024Z,8.25
2023-04-15T16:33:52.247Z,8.63
2023-04-15T16:36:19.528Z,9.18
2023-04-15T16:38:48.550Z,8.88
2023-04-15T16:41:16.384Z,8.35
2023-04-15T16:43:43.681Z,7.88
2023-04-15T16:46:11.128Z,8.02
2023-04-15T16:48:38.369Z,8.05
2023-04-15T16:51:05.897Z,8.23
2023-04-15T16:53:33.232Z,7.80
2023-04-15T16:56:00.556Z,7.68
2023-04-15T16:58:28.757Z,8.02
2023-04-15T17:00:56.902Z,7.97
2023-04-15T17:03:25.905Z,7.68
2023-04-15T17:05:55.497Z,13.15
2023-04-15T17:08:23.420Z,12.82
2023-04-15T17:10:52.501Z,10.57
2023-04-15T17:13:21.068Z,11.98
2023-04-15T17:15:48.812Z,9.27
2023-04-15T17:18:17.370Z,8.85
2023-04-15T17:20:46.151Z,8.10
2023-04-15T17:23:13.512Z,9.00
2023-04-15T17:25:41.312Z,7.38
2023-04-15T17:28:08.790Z,7.38
2023-04-15T17:30:36.471Z,9.35
2023-04-15T17:33:57.504Z,8.15
2023-04-15T17:35:51.515Z,7.00
2023-04-15T17:38:18.763Z,6.93
2023-04-15T17:40:46.199Z,6.80
2023-04-15T17:43:13.699Z,6.72
2023-04-15T17:45:41.340Z,7.32
2023-04-15T17:48:09.746Z,6.13
2023-04-15T17:50:38.462Z,5.20
2023-04-15T17:53:06.527Z,6.75
2023-04-15T17:55:34.542Z,7.53
2023-04-15T17:58:02.021Z,6.47
2023-04-15T18:00:29.305Z,6.13
2023-04-15T18:02:57.112Z,5.90
2023-04-15T18:05:24.520Z,6.07
2023-04-15T18:07:52.883Z,6.90
2023-04-15T18:10:20.769Z,6.57
2023-04-15T18:12:48.208Z,6.65
2023-04-15T18:15:15.649Z,7.45
2023-04-15T18:17:42.995Z,6.97
2023-04-15T18:20:11.339Z,5.80
2023-04-15T18:22:38.599Z,6.45
2023-04-15T18:25:06.936Z,7.68
2023-04-15T18:27:35.993Z,6.88
2023-04-15T18:30:04.014Z,7.57
2023-04-15T18:32:32.995Z,8.23
2023-04-15T18:35:00.740Z,6.53
2023-04-15T18:37:31.290Z,6.28
2023-04-15T18:39:59.072Z,7.03
2023-04-15T18:42:26.339Z,7.70
2023-04-15T18:44:53.800Z,6.78
2023-04-15T18:47:21.209Z,7.72
2023-04-15T18:49:48.423Z,7.28
2023-04-15T18:52:15.614Z,5.43
2023-04-15T18:54:42.829Z,5.90
2023-04-15T18:57:11.214Z,6.72
2023-04-15T18:59:39.695Z,7.07
2023-04-15T19:02:08.957Z,6.60
2023-04-15T19:04:36.636Z,7.50
2023-04-15T19:07:04.597Z,6.70
2023-04-15T19:09:32.511Z,6.97
2023-04-15T19:11:59.701Z,6.78
2023-04-15T19:14:28.066Z,7.53
2023-04-15T19:16:55.411Z,6.40
2023-04-15T19:19:22.722Z,7.88
2023-04-15T19:21:50.380Z,5.97
2023-04-15T19:24:18.324Z,6.82
2023-04-15T19:26:51.096Z,7.35
2023-04-15T19:29:18.956Z,7.85
2023-04-15T19:31:46.251Z,7.15
2023-04-15T19:34:13.539Z,7.00
2023-04-15T19:36:41.071Z,7.18
2023-04-15T19:39:09.603Z,7.35
2023-04-15T19:41:36.796Z,6.25
2023-04-15T19:44:04.466Z,6.35
2023-04-15T19:46:32.126Z,6.10
2023-04-15T19:48:59.984Z,6.68
2023-04-15T19:51:28.454Z,6.75
2023-04-15T19:53:56.883Z,6.90
2023-04-15T19:56:25.127Z,5.68
2023-04-15T19:58:53.270Z,6.53
2023-04-15T20:01:21.323Z,6.00
2023-04-15T20:03:50.243Z,6.10
2023-04-15T20:06:17.529Z,7.30
2023-04-15T20:08:44.773Z,7.10
2023-04-15T20:11:12.451Z,6.38
2023-04-15T20:13:42.464Z,5.57
2023-04-15T20:16:09.804Z,6.25
2023-04-15T20:18:37.038Z,6.30
2023-04-15T20:21:04.361Z,6.72
2023-04-15T20:23:32.244Z,6.80
2023-04-15T20:25:59.437Z,5.55
2023-04-15T20:28:27.474Z,7.13
2023-04-15T20:30:58.806Z,5.95
2023-04-15T20:33:27.466Z,6.78
2023-04-15T20:35:56.614Z,6.45
2023-04-15T20:38:26.224Z,5.65
2023-04-15T20:40:54.971Z,7.07
2023-04-15T20:43:22.745Z,5.95
2023-04-15T20:45:51.081Z,6.80
2023-04-15T20:48:19.268Z,6.78
2023-04-15T20:50:46.520Z,6.75
2023-04-15T20:53:14.598Z,6.15
2023-04-15T20:55:44.710Z,6.50
2023-04-15T20:58:12.297Z,7.35
2023-04-15T21:00:40.865Z,6.10
2023-04-15T21:03:09.765Z,7.00
2023-04-15T21:05:37.436Z,7.88
2023-04-15T21:08:06.358Z,7.95
2023-04-15T21:10:35.859Z,6.57
2023-04-15T21:13:03.710Z,6.90
2023-04-15T21:15:32.974Z,6.40
2023-04-15T21:18:04.648Z,8.25
2023-04-15T21:20:35.322Z,8.18
2023-04-15T21:23:03.421Z,7.13
2023-04-15T21:25:31.634Z,6.20
2023-04-15T21:28:01.170Z,6.85
2023-04-15T21:30:30.295Z,7.65
2023-04-15T21:33:00.659Z,8.38
2023-04-15T21:35:30.625Z,7.22
2023-04-15T21:37:58.259Z,6.70
2023-04-15T21:40:26.773Z,8.80
2023-04-15T21:42:54.983Z,7.20
2023-04-15T21:45:22.914Z,7.53
2023-04-15T21:48:00.673Z,6.60
2023-04-15T21:50:38.624Z,7.22
2023-04-15T21:53:08.614Z,7.07
2023-04-15T21:55:36.863Z,7.25
2023-04-15T21:58:04.721Z,7.32
2023-04-15T22:00:33.050Z,6.78
2023-04-15T22:03:00.881Z,6.97
2023-04-15T22:05:28.532Z,6.72
2023-04-15T22:07:58.686Z,5.97
2023-04-15T22:10:28.815Z,7.78
2023-04-15T22:13:01.335Z,7.57
2023-04-15T22:15:29.914Z,6.40
2023-04-15T22:17:58.792Z,7.43
2023-04-15T22:20:27.513Z,7.20
2023-04-15T22:22:56.251Z,6.30
2023-04-15T22:27:53.703Z,6.85
2023-04-15T22:30:21.550Z,8.25
2023-04-15T22:32:50.157Z,7.22
2023-04-15T22:35:18.578Z,6.05
2023-04-15T22:37:46.713Z,4.53
2023-04-15T22:40:14.726Z,5.97
2023-04-15T22:42:42.462Z,7.63
2023-04-15T22:45:12.184Z,6.55
2023-04-15T22:47:44.027Z,7.00
2023-04-15T22:50:13.416Z,6.60
2023-04-15T22:52:42.528Z,7.13
2023-04-15T22:57:42.139Z,6.18
2023-04-15T23:00:10.834Z,5.95
2023-04-15T23:02:41.440Z,6.28
2023-04-15T23:05:13.670Z,7.63
2023-04-15T23:07:42.328Z,6.43
2023-04-15T23:10:09.988Z,6.00
2023-04-15T23:12:38.197Z,7.13
2023-04-15T23:15:07.658Z,7.55
2023-04-15T23:17:37.650Z,6.78
2023-04-15T23:20:05.800Z,6.57
2023-04-15T23:22:37.938Z,5.88
2023-04-15T23:25:06.264Z,7.18
2023-04-15T23:27:34.884Z,6.35
2023-04-15T23:30:03.025Z,7.15
2023-04-15T23:32:30.626Z,6.22
2023-04-15T23:35:04.047Z,6.78
2023-04-15T23:37:33.527Z,7.53
2023-04-15T23:40:05.904Z,6.55
2023-04-15T23:42:34.631Z,7.20
2023-04-15T23:45:03.606Z,8.25
2023-04-15T23:47:32.740Z,8.05
2023-04-15T23:50:00.076Z,8.10
2023-04-15T23:52:27.626Z,6.75
2023-04-15T23:54:55.218Z,7.22
2023-04-15T23:57:22.441Z,7.00
